Hlavní strana
METAR-TAF:

METAR-TAF

Letiště :

Ben Gurionovo mezinárodní letiště

Tel Aviv / Ben Gurion, Izrael

zeměpisná šířka: 32-00N, zeměpisná délka: 034-54E, výška: 40 m

Aktuální stav počasí

Zpráva byla vytvořena před 25 minutami, v 08:20 UTC
Západoseverozápadní vítr 5 kt
Teplota 31°C
Vlhkost vzduchu 43%
Tlak 1013 hPa
Viditelnost 10 km a více
Skoro jasno ve výšce 4000 ft

METAR: LLBG 200820Z 29005KT 9999 FEW040 31/17 Q1013 NOSIG

Čas: 11:45 (08:45 UTC)

Předpověď počasí

Zpráva byla vytvořena před 3 hodinami a 44 minutami, v 05:01 UTC
Předpověď platná od 20 v 06 UTC do 21 v 06 UTC
vítr z různých směrů 3 kt
Viditelnost 10 km a více
Polojasno ve výšce 2500 ft
Změna
od 20 v 07 UTC do 20 v 09 UTC
Západní vítr 10 kt
Skoro jasno ve výšce 3000 ft
Změna
od 20 v 16 UTC do 20 v 19 UTC
vítr z různých směrů 4 kt
Polojasno ve výšce 2000 ft

TAF: LLBG 200501Z 2006/2106 VRB03KT 9999 SCT025 BECMG 2007/2009 28010KT FEW030 BECMG 2016/2019 VRB04KT SCT020 TX31/2012Z TN22/2104Z

Stav a předpovědi počasí z více než 4 000 letišť (zprávy METAR a TAF).

Červené a žluté tečky na mapě představují dostupné meteorologické stanice.

Když kurzor umístíte na tečku, zobrazí se název stanice.

Pak kliknutím zobrazíte stav a předpověď počasí.

Chcete-li změnit mapu, kliknutím na zelené tlačítko se znaménkem +mapu přiblížíte, kliknutím na zelené tlačítko se znaménkem – mapu oddálíte a kliknutím na zelené šipky přejdete na sousední mapy.


METAR-TAF: